METAR Formatted Surface Weather Observation
Issued by NWS

Home | Current Version | Previous Version | Text Only | Print | Product List | Glossary On
Versions: 1
000
SAHW31 PHFO 270854
MTRJRF
METAR PHJR 270853Z AUTO 04005KT 10SM CLR 24/19 A3004 RMK AO2 SLP178
T02440194 51008 TSNO



USA.gov is the U.S. government's official web portal to all federal, state and local government web resources and services.